createdAt,value
2017-10-09T02:07:06.964Z,20.80
2017-10-09T02:09:35.656Z,20.80
2017-10-09T02:12:03.991Z,20.80
2017-10-09T02:14:33.003Z,20.80
2017-10-09T02:17:01.216Z,20.80
2017-10-09T02:19:29.445Z,20.80
2017-10-09T02:21:57.729Z,20.80
2017-10-09T02:24:26.335Z,20.90
2017-10-09T02:26:54.577Z,20.90
2017-10-09T02:29:22.783Z,20.90
2017-10-09T02:31:51.026Z,20.90
2017-10-09T02:34:19.292Z,20.90
2017-10-09T02:36:47.883Z,20.90
2017-10-09T02:39:16.095Z,20.90
2017-10-09T02:41:44.332Z,20.90
2017-10-09T02:44:12.499Z,20.90
2017-10-09T02:46:40.707Z,20.90
2017-10-09T02:49:08.934Z,20.90
2017-10-09T02:51:37.982Z,20.90
2017-10-09T02:54:06.636Z,20.90
2017-10-09T02:56:34.901Z,20.90
2017-10-09T02:59:03.178Z,20.90
2017-10-09T03:01:31.439Z,20.80
2017-10-09T03:04:00.420Z,20.90
2017-10-09T03:06:28.654Z,20.90
2017-10-09T03:08:57.420Z,20.80
2017-10-09T03:11:26.853Z,20.80
2017-10-09T03:13:55.125Z,20.80
2017-10-09T03:16:23.385Z,20.80
2017-10-09T03:18:51.670Z,20.80
2017-10-09T03:21:19.890Z,20.80
2017-10-09T03:27:14.529Z,20.90
2017-10-09T03:29:42.810Z,20.80
2017-10-09T03:32:11.116Z,20.80
2017-10-09T03:34:39.399Z,20.80
2017-10-09T03:37:07.630Z,20.80
2017-10-09T03:39:35.891Z,20.80
2017-10-09T03:42:04.127Z,20.80
2017-10-09T03:44:32.366Z,20.90
2017-10-09T03:47:00.610Z,20.80
2017-10-09T03:49:29.676Z,20.80
2017-10-09T03:51:58.087Z,20.80
2017-10-09T03:54:26.324Z,20.80
2017-10-09T03:56:54.530Z,20.80
2017-10-09T03:59:22.831Z,20.90
2017-10-09T04:01:51.559Z,20.90
2017-10-09T04:04:19.861Z,20.80
2017-10-09T04:06:48.861Z,20.80
2017-10-09T04:09:17.142Z,20.80
2017-10-09T04:11:45.386Z,20.80
2017-10-09T04:14:13.637Z,20.80
2017-10-09T04:16:41.890Z,20.80
2017-10-09T04:19:11.189Z,20.80
2017-10-09T04:21:39.490Z,20.80
2017-10-09T04:24:07.746Z,20.80
2017-10-09T04:26:36.066Z,20.80
2017-10-09T04:29:04.342Z,20.80
2017-10-09T04:31:32.548Z,20.80
2017-10-09T04:34:00.788Z,20.80
2017-10-09T04:36:29.018Z,20.80
2017-10-09T04:38:57.261Z,20.80
2017-10-09T04:41:26.267Z,20.80
2017-10-09T04:43:54.526Z,20.80
2017-10-09T04:46:23.575Z,20.80
2017-10-09T04:48:52.272Z,20.80
2017-10-09T04:51:20.598Z,20.80
2017-10-09T04:53:48.844Z,20.80
2017-10-09T04:56:17.832Z,20.80
2017-10-09T04:58:46.946Z,20.80
2017-10-09T05:01:15.208Z,20.80
2017-10-09T05:03:44.383Z,20.80
2017-10-09T05:06:12.647Z,20.80
2017-10-09T05:08:40.937Z,20.80
2017-10-09T05:11:09.582Z,20.80
2017-10-09T05:13:37.811Z,20.80
2017-10-09T05:16:06.791Z,20.80
2017-10-09T05:18:35.051Z,20.80
2017-10-09T05:21:03.362Z,20.80
2017-10-09T05:23:32.740Z,20.80
2017-10-09T05:26:00.985Z,20.80
2017-10-09T05:28:29.226Z,20.70
2017-10-09T05:30:57.501Z,20.80
2017-10-09T05:33:25.764Z,20.80
2017-10-09T05:35:54.781Z,20.80
2017-10-09T05:38:23.008Z,20.70
2017-10-09T05:40:52.088Z,20.80
2017-10-09T05:43:20.379Z,20.80
2017-10-09T05:45:49.435Z,20.80
2017-10-09T05:48:17.737Z,20.70
2017-10-09T05:50:46.078Z,20.80
2017-10-09T05:53:14.282Z,20.80
2017-10-09T05:55:42.560Z,20.80
2017-10-09T05:58:10.836Z,20.80
2017-10-09T06:00:39.123Z,20.80
2017-10-09T06:03:08.982Z,20.80
2017-10-09T06:05:37.222Z,20.70
2017-10-09T06:08:06.287Z,20.80
2017-10-09T06:10:34.518Z,20.80
2017-10-09T06:13:02.763Z,20.80
2017-10-09T06:15:32.679Z,20.80
2017-10-09T06:18:01.675Z,20.80
2017-10-09T06:20:30.711Z,20.80
2017-10-09T06:22:59.111Z,20.80
2017-10-09T06:25:27.312Z,20.80
2017-10-09T06:27:56.311Z,20.80
2017-10-09T06:30:24.625Z,20.80
2017-10-09T06:32:52.954Z,20.90
2017-10-09T06:35:21.963Z,21.00
2017-10-09T06:37:50.943Z,21.00
2017-10-09T06:40:19.934Z,21.10
2017-10-09T06:42:49.135Z,21.20
2017-10-09T06:45:17.488Z,21.10
2017-10-09T06:47:45.701Z,21.20
2017-10-09T06:50:14.115Z,21.20
2017-10-09T06:52:42.359Z,21.30
2017-10-09T06:55:10.659Z,21.30
2017-10-09T06:57:38.890Z,21.30
2017-10-09T07:00:07.946Z,21.30
2017-10-09T07:02:36.165Z,21.30
2017-10-09T07:05:05.528Z,21.30
2017-10-09T07:07:33.736Z,21.30
2017-10-09T07:10:01.992Z,21.30
2017-10-09T07:12:30.224Z,21.30
2017-10-09T07:14:58.553Z,21.30
2017-10-09T07:17:26.777Z,21.40
2017-10-09T07:19:55.051Z,21.40
2017-10-09T07:22:23.238Z,21.40
2017-10-09T07:24:51.508Z,21.40
2017-10-09T07:27:19.786Z,21.40
2017-10-09T07:29:50.016Z,21.40
2017-10-09T07:32:18.324Z,21.40
2017-10-09T07:34:47.302Z,21.40
2017-10-09T07:37:15.519Z,21.40
2017-10-09T07:39:43.779Z,21.40
2017-10-09T07:42:11.998Z,21.40
2017-10-09T07:44:40.252Z,21.40
2017-10-09T07:47:08.491Z,21.40
2017-10-09T07:49:37.500Z,21.40
2017-10-09T07:52:06.135Z,21.40
2017-10-09T07:54:34.406Z,21.40
2017-10-09T07:57:02.633Z,21.40
2017-10-09T07:59:31.546Z,21.40
2017-10-09T08:01:59.783Z,21.40
2017-10-09T08:04:28.878Z,21.40
2017-10-09T08:06:57.119Z,21.40
2017-10-09T08:09:25.908Z,21.40
2017-10-09T08:11:54.288Z,21.40
2017-10-09T08:14:22.510Z,21.40
2017-10-09T08:16:50.758Z,21.40
2017-10-09T08:19:19.276Z,21.40
2017-10-09T08:21:47.795Z,21.40
2017-10-09T08:24:16.144Z,21.50
2017-10-09T08:26:46.086Z,21.40
2017-10-09T08:29:14.398Z,21.50
2017-10-09T08:31:43.518Z,21.40
2017-10-09T08:34:13.222Z,21.40
2017-10-09T08:36:41.470Z,21.50
2017-10-09T08:39:10.463Z,21.40
2017-10-09T08:41:39.633Z,21.40
2017-10-09T08:44:08.216Z,21.50
2017-10-09T08:46:38.691Z,21.40
2017-10-09T08:49:07.261Z,21.50
2017-10-09T08:51:36.678Z,21.50
2017-10-09T08:54:04.973Z,21.40
2017-10-09T08:56:34.430Z,21.50
2017-10-09T08:59:04.656Z,21.50
2017-10-09T09:01:34.156Z,21.40
2017-10-09T09:04:03.215Z,21.50
2017-10-09T09:06:32.234Z,21.50
2017-10-09T09:09:00.556Z,21.50
2017-10-09T09:11:29.252Z,21.50
2017-10-09T09:13:58.489Z,21.40
2017-10-09T09:16:27.529Z,21.40
2017-10-09T09:18:55.765Z,21.40
2017-10-09T09:21:24.631Z,21.40
2017-10-09T09:23:53.008Z,21.40
2017-10-09T09:26:23.550Z,21.40
2017-10-09T09:28:53.526Z,21.40
2017-10-09T09:31:24.595Z,21.40
2017-10-09T09:33:55.055Z,21.40
2017-10-09T09:36:23.395Z,21.40
2017-10-09T09:38:52.971Z,21.40
2017-10-09T09:41:22.387Z,21.40
2017-10-09T09:43:51.999Z,21.40
2017-10-09T09:46:20.990Z,21.40
2017-10-09T09:48:50.265Z,21.40
2017-10-09T09:51:19.567Z,21.50
2017-10-09T09:53:49.248Z,21.50
2017-10-09T09:56:18.917Z,21.50
2017-10-09T09:58:50.950Z,21.50
2017-10-09T10:01:19.502Z,21.50
2017-10-09T10:03:47.706Z,21.50
2017-10-09T10:06:18.913Z,21.50
2017-10-09T10:08:50.455Z,21.50
2017-10-09T10:11:20.318Z,21.50
2017-10-09T10:13:48.558Z,21.50
2017-10-09T10:16:16.787Z,21.50
2017-10-09T10:18:45.797Z,21.40
2017-10-09T10:21:14.040Z,21.40
2017-10-09T10:23:43.426Z,21.40
2017-10-09T10:26:12.874Z,21.40
2017-10-09T10:28:42.060Z,21.50
2017-10-09T10:31:12.642Z,21.50
2017-10-09T10:33:40.891Z,21.50
2017-10-09T10:36:09.111Z,21.50
2017-10-09T10:38:37.432Z,21.50
2017-10-09T10:41:05.740Z,21.50
2017-10-09T10:43:33.995Z,21.50
2017-10-09T10:46:02.977Z,21.50
2017-10-09T10:48:31.200Z,21.50
2017-10-09T10:50:59.420Z,21.50
2017-10-09T10:53:27.663Z,21.50
2017-10-09T10:55:55.874Z,21.50
2017-10-09T10:58:24.531Z,21.50
2017-10-09T11:00:53.719Z,21.50
2017-10-09T11:03:22.044Z,21.50
2017-10-09T11:05:50.266Z,21.50
2017-10-09T11:08:18.543Z,21.50
2017-10-09T11:10:46.760Z,21.50
2017-10-09T11:13:14.975Z,21.60
2017-10-09T11:15:44.132Z,21.60
2017-10-09T11:18:12.421Z,21.50
2017-10-09T11:20:40.747Z,21.50
2017-10-09T11:23:08.995Z,21.50
2017-10-09T11:25:37.328Z,21.50
2017-10-09T11:28:05.554Z,21.50
2017-10-09T11:30:33.824Z,21.50
2017-10-09T11:33:03.049Z,21.50
2017-10-09T11:35:31.511Z,21.50
2017-10-09T11:37:59.741Z,21.50
2017-10-09T11:40:27.950Z,21.50
2017-10-09T11:42:56.481Z,21.50
2017-10-09T11:45:24.735Z,21.50
2017-10-09T11:47:53.762Z,21.50
2017-10-09T11:50:21.975Z,21.50
2017-10-09T11:52:50.271Z,21.50
2017-10-09T11:55:19.347Z,21.50
2017-10-09T11:57:47.651Z,21.40
2017-10-09T12:00:16.641Z,21.40
2017-10-09T12:02:45.636Z,21.40
2017-10-09T12:05:14.623Z,21.40
2017-10-09T12:07:43.764Z,21.40
2017-10-09T12:10:12.010Z,21.40
2017-10-09T12:12:41.038Z,21.40
2017-10-09T12:15:09.447Z,21.40
2017-10-09T12:17:37.674Z,21.40
2017-10-09T12:20:05.964Z,21.40
2017-10-09T12:22:34.502Z,21.40
2017-10-09T12:25:03.506Z,21.40
2017-10-09T12:27:37.013Z,21.40
2017-10-09T12:30:05.253Z,21.40
2017-10-09T12:32:33.533Z,21.40
2017-10-09T12:35:02.628Z,21.40
2017-10-09T12:37:31.119Z,21.40
2017-10-09T12:40:03.482Z,21.40
2017-10-09T12:42:32.571Z,21.40
2017-10-09T12:45:00.906Z,21.40
2017-10-09T12:47:30.005Z,21.40
2017-10-09T12:49:58.957Z,21.40
2017-10-09T12:52:27.221Z,21.40
2017-10-09T12:54:55.895Z,21.40
2017-10-09T12:57:24.918Z,21.40
2017-10-09T12:59:54.012Z,21.40
2017-10-09T13:02:22.268Z,21.40
2017-10-09T13:04:53.185Z,21.40
2017-10-09T13:07:21.448Z,21.40
2017-10-09T13:09:49.715Z,21.40
2017-10-09T13:12:18.848Z,21.40
2017-10-09T13:14:47.136Z,21.40
2017-10-09T13:17:17.021Z,21.40
2017-10-09T13:19:46.093Z,21.40
2017-10-09T13:22:14.472Z,21.40
2017-10-09T13:24:42.714Z,21.40
2017-10-09T13:27:11.073Z,21.40
2017-10-09T13:29:39.282Z,21.40
2017-10-09T13:32:08.436Z,21.40
2017-10-09T13:34:38.496Z,21.40
2017-10-09T13:37:07.103Z,21.40
2017-10-09T13:39:35.647Z,21.40
2017-10-09T13:42:04.045Z,21.40
2017-10-09T13:44:32.278Z,21.40
2017-10-09T13:47:00.629Z,21.40
2017-10-09T13:49:29.713Z,21.50
2017-10-09T13:51:57.964Z,21.40
2017-10-09T13:54:26.213Z,21.40
2017-10-09T13:56:54.439Z,21.40
2017-10-09T13:59:22.858Z,21.50
2017-10-09T14:01:51.083Z,21.40
2017-10-09T14:04:19.347Z,21.40
2017-10-09T14:06:47.666Z,21.40
2017-10-09T14:09:16.730Z,21.40
2017-10-09T14:11:46.509Z,21.40
2017-10-09T14:14:14.981Z,21.40
2017-10-09T14:16:43.216Z,21.40
2017-10-09T14:19:12.251Z,21.40
2017-10-09T14:21:40.524Z,21.40
2017-10-09T14:24:08.831Z,21.40
2017-10-09T14:26:37.145Z,21.40
2017-10-09T14:29:06.147Z,21.40
2017-10-09T14:41:28.133Z,21.50
2017-10-09T14:43:56.462Z,21.40
2017-10-09T14:46:24.675Z,21.50
2017-10-09T14:48:56.627Z,21.40
2017-10-09T14:51:26.802Z,21.50
2017-10-09T14:53:57.176Z,21.40
2017-10-09T14:56:25.808Z,21.40
2017-10-09T14:58:54.353Z,21.40
2017-10-09T15:01:22.623Z,21.50
2017-10-09T15:03:51.632Z,21.50
2017-10-09T15:06:20.157Z,21.50
2017-10-09T15:08:48.450Z,21.50
2017-10-09T15:11:17.461Z,21.50
2017-10-09T15:13:47.475Z,21.50
2017-10-09T15:16:17.140Z,21.50
2017-10-09T15:18:51.265Z,21.50
2017-10-09T15:21:19.488Z,21.50
2017-10-09T15:23:53.593Z,21.50
2017-10-09T15:26:22.656Z,21.50
2017-10-09T15:28:51.626Z,21.50
2017-10-09T15:31:19.878Z,21.50
2017-10-09T15:33:48.131Z,21.50
2017-10-09T15:36:16.340Z,21.50
2017-10-09T15:38:47.461Z,21.50
2017-10-09T15:41:16.387Z,21.50
2017-10-09T15:43:47.520Z,21.50
2017-10-09T15:46:15.900Z,21.50
2017-10-09T15:48:44.195Z,21.50
2017-10-09T15:51:12.436Z,21.50
2017-10-09T15:53:40.731Z,21.50
2017-10-09T15:56:08.974Z,21.50
2017-10-09T15:58:37.208Z,21.50
2017-10-09T16:01:05.415Z,21.50
2017-10-09T16:03:33.692Z,21.50
2017-10-09T16:06:01.905Z,21.50
2017-10-09T16:08:30.138Z,21.50
2017-10-09T16:10:58.412Z,21.50
2017-10-09T16:13:26.632Z,21.50
2017-10-09T16:15:54.868Z,21.50
2017-10-09T16:18:24.793Z,21.50
2017-10-09T16:20:53.187Z,21.50
2017-10-09T16:23:21.418Z,21.50
2017-10-09T16:25:49.656Z,21.50
2017-10-09T16:28:17.920Z,21.50
2017-10-09T16:30:46.283Z,21.50
2017-10-09T16:33:15.279Z,21.50
2017-10-09T16:35:43.582Z,21.50
2017-10-09T16:38:11.779Z,21.50
2017-10-09T16:40:42.049Z,21.50
2017-10-09T16:43:10.316Z,21.50
2017-10-09T16:45:38.541Z,21.50
2017-10-09T16:48:07.419Z,21.50
2017-10-09T16:50:35.772Z,21.50
2017-10-09T16:53:05.605Z,21.50
2017-10-09T16:55:51.037Z,21.50
2017-10-09T16:58:21.376Z,21.50
2017-10-09T17:00:50.515Z,21.50
2017-10-09T17:03:18.993Z,21.50
2017-10-09T17:05:47.271Z,21.50
2017-10-09T17:08:23.696Z,21.50
2017-10-09T17:10:53.521Z,21.50
2017-10-09T17:13:22.967Z,21.50
2017-10-09T17:15:52.258Z,21.50
2017-10-09T17:18:25.460Z,21.50
2017-10-09T17:20:53.799Z,21.50
2017-10-09T17:23:22.021Z,21.50
2017-10-09T17:25:50.278Z,21.50
2017-10-09T17:28:19.396Z,21.60
2017-10-09T17:30:47.712Z,21.60
2017-10-09T17:33:15.967Z,21.60
2017-10-09T17:35:44.288Z,21.60
2017-10-09T17:38:12.784Z,21.60
2017-10-09T17:40:44.713Z,21.60
2017-10-09T17:43:12.981Z,21.60
2017-10-09T17:45:41.249Z,21.60
2017-10-09T17:48:09.985Z,21.60
2017-10-09T17:50:38.316Z,21.60
2017-10-09T17:53:06.582Z,21.60
2017-10-09T17:55:34.819Z,21.60
2017-10-09T17:58:03.338Z,21.50
2017-10-09T18:00:31.741Z,21.50
2017-10-09T18:02:59.968Z,21.60
2017-10-09T18:05:28.218Z,21.60
2017-10-09T18:07:58.120Z,21.60
2017-10-09T18:10:27.139Z,21.60
2017-10-09T18:12:55.424Z,21.60
2017-10-09T18:15:24.033Z,21.60
2017-10-09T18:17:52.303Z,21.50
2017-10-09T18:20:20.615Z,21.50
2017-10-09T18:22:48.963Z,21.60
2017-10-09T18:25:18.107Z,21.50
2017-10-09T18:27:46.366Z,21.50
2017-10-09T18:30:15.441Z,21.50
2017-10-09T18:32:45.045Z,21.50
2017-10-09T18:35:13.272Z,21.50
2017-10-09T18:37:41.748Z,21.50
2017-10-09T18:40:10.087Z,21.50
2017-10-09T18:42:39.077Z,21.50
2017-10-09T18:45:07.353Z,21.50
2017-10-09T18:47:35.629Z,21.50
2017-10-09T18:50:03.957Z,21.50
2017-10-09T18:52:32.920Z,21.50
2017-10-09T18:55:02.719Z,21.60
2017-10-09T18:57:30.962Z,21.50
2017-10-09T19:00:00.142Z,21.50
2017-10-09T19:02:28.414Z,21.60
2017-10-09T19:04:56.659Z,21.50
2017-10-09T19:07:24.876Z,21.60
2017-10-09T19:09:53.116Z,21.60
2017-10-09T19:12:21.391Z,21.60
2017-10-09T19:14:51.564Z,21.60
2017-10-09T19:17:19.861Z,21.60
2017-10-09T19:19:48.865Z,21.60
2017-10-09T19:22:17.957Z,21.60
2017-10-09T19:24:46.951Z,21.60
2017-10-09T19:27:16.353Z,21.60
2017-10-09T19:29:44.592Z,21.60
2017-10-09T19:32:16.702Z,21.60
2017-10-09T19:34:44.958Z,21.60
2017-10-09T19:37:14.669Z,21.60
2017-10-09T19:39:43.462Z,21.60
2017-10-09T19:42:13.700Z,21.60
2017-10-09T19:44:41.974Z,21.60
2017-10-09T19:47:11.183Z,21.60
2017-10-09T19:49:39.401Z,21.60
2017-10-09T19:52:08.460Z,21.60
2017-10-09T19:54:36.796Z,21.60
2017-10-09T19:57:06.415Z,21.60
2017-10-09T19:59:38.855Z,21.60
2017-10-09T20:02:07.161Z,21.60
2017-10-09T20:04:39.468Z,21.60
2017-10-09T20:07:10.256Z,21.60
2017-10-09T20:09:38.537Z,21.60
2017-10-09T20:12:07.687Z,21.60
2017-10-09T20:14:35.932Z,21.60
2017-10-09T20:17:04.184Z,21.60
2017-10-09T20:19:32.459Z,21.60
2017-10-09T20:22:00.742Z,21.60
2017-10-09T20:24:29.021Z,21.60
2017-10-09T20:26:57.336Z,21.60
2017-10-09T20:29:25.981Z,21.60
2017-10-09T20:31:54.256Z,21.60
2017-10-09T20:34:22.709Z,21.60
2017-10-09T20:36:51.680Z,21.60
2017-10-09T20:39:19.945Z,21.60
2017-10-09T20:41:48.246Z,21.60
2017-10-09T20:44:16.498Z,21.60
2017-10-09T20:46:44.759Z,21.50
2017-10-09T20:49:13.000Z,21.60
2017-10-09T20:51:42.016Z,21.60
2017-10-09T20:54:11.174Z,21.50
2017-10-09T20:56:39.448Z,21.60
2017-10-09T20:59:07.695Z,21.60
2017-10-09T21:01:36.473Z,21.60
2017-10-09T21:04:04.708Z,21.60
2017-10-09T21:06:33.110Z,21.50
2017-10-09T21:09:01.328Z,21.60
2017-10-09T21:11:30.339Z,21.60
2017-10-09T21:13:58.618Z,21.60
2017-10-09T21:16:26.856Z,21.60
2017-10-09T21:18:55.088Z,21.60
2017-10-09T21:21:23.339Z,21.60
2017-10-09T21:23:51.594Z,21.60
2017-10-09T21:26:19.868Z,21.60
2017-10-09T21:28:48.900Z,21.60
2017-10-09T21:31:17.725Z,21.60
2017-10-09T21:33:47.142Z,21.60
2017-10-09T21:36:15.392Z,21.50
2017-10-09T21:38:43.646Z,21.50
2017-10-09T21:41:11.861Z,21.60
2017-10-09T21:43:40.077Z,21.50
2017-10-09T21:46:08.417Z,21.60
2017-10-09T21:48:36.905Z,21.50
2017-10-09T21:51:05.884Z,21.50
2017-10-09T21:53:34.128Z,21.50
2017-10-09T21:56:02.449Z,21.50
2017-10-09T21:58:30.696Z,21.50
2017-10-09T22:00:59.255Z,21.50
2017-10-09T22:03:27.497Z,21.50
2017-10-09T22:05:55.767Z,21.50
2017-10-09T22:08:24.742Z,21.40
2017-10-09T22:10:52.997Z,21.40
2017-10-09T22:13:21.230Z,21.40
2017-10-09T22:15:49.500Z,21.40
2017-10-09T22:18:17.755Z,21.40
2017-10-09T22:20:51.636Z,21.40
2017-10-09T22:23:19.923Z,21.30
2017-10-09T22:25:48.132Z,21.30
2017-10-09T22:28:16.378Z,21.30
2017-10-09T22:30:45.370Z,21.30
2017-10-09T22:33:15.299Z,21.30
2017-10-09T22:35:43.594Z,21.30
2017-10-09T22:38:12.491Z,21.30
2017-10-09T22:40:40.708Z,21.30
2017-10-09T22:43:09.043Z,21.30
2017-10-09T22:45:37.559Z,21.30
2017-10-09T22:48:05.770Z,21.30
2017-10-09T22:50:34.015Z,21.30
2017-10-09T22:53:02.239Z,21.30
2017-10-09T22:55:30.520Z,21.30
2017-10-09T22:57:58.775Z,21.20
2017-10-09T23:00:27.011Z,21.30
2017-10-09T23:02:55.283Z,21.30
2017-10-09T23:05:23.517Z,21.30
2017-10-09T23:07:51.769Z,21.30
2017-10-09T23:10:20.043Z,21.30
2017-10-09T23:12:48.392Z,21.30
2017-10-09T23:15:16.776Z,21.20
2017-10-09T23:17:46.447Z,21.20
2017-10-09T23:20:14.713Z,21.10
2017-10-09T23:22:42.942Z,21.20
2017-10-09T23:25:11.919Z,21.20
2017-10-09T23:27:40.135Z,21.20
2017-10-09T23:30:08.367Z,21.20
2017-10-09T23:32:36.708Z,21.20
2017-10-09T23:35:04.915Z,21.20
2017-10-09T23:37:34.899Z,21.10
2017-10-09T23:40:03.167Z,21.10
2017-10-09T23:42:31.697Z,21.10
2017-10-09T23:45:00.747Z,21.20
2017-10-09T23:47:28.999Z,21.10
2017-10-09T23:49:57.255Z,21.20
2017-10-09T23:52:25.505Z,21.10
2017-10-09T23:54:53.768Z,21.10
2017-10-09T23:57:22.013Z,21.10
2017-10-09T23:59:50.246Z,21.10
